Time;durP1;ratioP1;P1;durP2;ratioP2;P2;SDS_P1;SDS_P2;PMS_P1;PMS_P2;Temp;Humidity;BMP_temperature;BMP_pressure;BME280_temperature;BME280_humidity;BME280_pressure;Samples;Min_cycle;Max_cycle;Signal;HPM_P1;HPM_P2
2021/08/12 00:00:19;;;;;;;10.30;6.40;;;15.60;99.90;;;;;;4999297;28;20248;-61
2021/08/12 00:02:46;;;;;;;12.85;6.60;;;15.60;99.90;;;;;;4990824;28;20252;-61
2021/08/12 00:05:14;;;;;;;8.38;7.28;;;15.60;99.90;;;;;;4982395;28;20240;-61
2021/08/12 00:07:41;;;;;;;8.43;7.05;;;15.50;99.90;;;;;;4988592;28;20194;-60
2021/08/12 00:10:09;;;;;;;11.15;6.80;;;15.50;99.90;;;;;;4999151;28;20198;-61
2021/08/12 00:12:36;;;;;;;7.70;6.57;;;15.50;99.90;;;;;;4996447;28;20206;-60
2021/08/12 00:15:03;;;;;;;6.80;6.10;;;15.30;99.90;;;;;;4999035;28;20246;-61
2021/08/12 00:17:31;;;;;;;8.23;7.43;;;15.30;99.90;;;;;;4998599;28;20202;-60
2021/08/12 00:19:58;;;;;;;13.73;7.35;;;15.40;99.90;;;;;;4998821;28;20238;-60
2021/08/12 00:22:24;;;;;;;12.40;7.43;;;15.30;99.90;;;;;;4997876;28;20335;-60
2021/08/12 00:24:51;;;;;;;7.72;7.03;;;15.30;99.90;;;;;;4996515;28;20223;-60
2021/08/12 00:27:18;;;;;;;8.57;6.28;;;15.30;99.90;;;;;;4997809;28;20533;-60
2021/08/12 00:29:46;;;;;;;7.03;6.43;;;15.20;99.90;;;;;;4998959;28;20202;-63
2021/08/12 00:32:13;;;;;;;7.97;6.93;;;15.10;99.90;;;;;;4998621;28;20206;-60
2021/08/12 00:34:40;;;;;;;10.73;6.32;;;15.00;99.90;;;;;;4996331;28;20210;-60
2021/08/12 00:37:07;;;;;;;13.35;7.22;;;15.10;99.90;;;;;;4996447;28;20461;-59
2021/08/12 00:39:34;;;;;;;7.40;6.80;;;15.20;99.90;;;;;;4998013;28;20198;-60
2021/08/12 00:42:01;;;;;;;9.20;7.22;;;15.20;99.90;;;;;;4998852;28;20203;-60
2021/08/12 00:44:28;;;;;;;8.80;7.55;;;15.10;99.90;;;;;;4997381;28;20209;-61
2021/08/12 00:46:55;;;;;;;8.65;7.85;;;15.10;99.90;;;;;;4998898;28;20607;-60
2021/08/12 00:49:22;;;;;;;10.57;8.35;;;15.10;99.90;;;;;;4997959;28;20229;-61
2021/08/12 00:51:49;;;;;;;12.18;8.00;;;15.00;99.90;;;;;;4997794;28;20208;-60
2021/08/12 00:54:16;;;;;;;16.98;8.55;;;15.00;99.90;;;;;;4997304;28;20501;-60
2021/08/12 00:56:44;;;;;;;11.82;7.30;;;15.00;99.90;;;;;;4998996;28;20205;-61
2021/08/12 00:59:11;;;;;;;9.07;8.13;;;14.90;99.90;;;;;;4998110;28;20251;-59
2021/08/12 01:01:38;;;;;;;10.65;7.47;;;14.90;99.90;;;;;;4999136;28;20531;-60
2021/08/12 01:04:05;;;;;;;9.60;7.97;;;15.00;99.90;;;;;;4998788;28;20413;-60
2021/08/12 01:07:14;;;;;;;10.50;7.43;;;15.10;99.90;;;;;;4997695;28;20237;-60
2021/08/12 01:09:51;;;;;;;11.88;8.50;;;15.00;99.90;;;;;;4987037;28;20695;-60
2021/08/12 01:12:33;;;;;;;10.48;8.45;;;15.00;99.90;;;;;;4998468;28;20268;-60
2021/08/12 01:15:09;;;;;;;8.02;7.32;;;14.90;99.90;;;;;;4998256;28;20194;-59
2021/08/12 01:17:46;;;;;;;9.68;7.88;;;14.90;99.90;;;;;;4998163;28;20236;-61
2021/08/12 01:20:50;;;;;;;13.95;8.00;;;14.80;99.90;;;;;;4998002;28;20201;-60
2021/08/12 01:23:19;;;;;;;11.43;9.23;;;14.90;99.90;;;;;;4990402;28;20379;-62
2021/08/12 01:25:48;;;;;;;11.98;9.27;;;14.70;99.90;;;;;;4997007;28;20221;-60
2021/08/12 01:28:25;;;;;;;9.75;7.90;;;14.70;99.90;;;;;;4989261;28;20225;-60
2021/08/12 01:31:11;;;;;;;9.10;7.97;;;14.60;99.90;;;;;;4997896;28;20240;-60
2021/08/12 01:33:55;;;;;;;9.70;8.70;;;14.70;99.90;;;;;;4992067;28;20325;-62
2021/08/12 01:36:24;;;;;;;10.50;8.55;;;14.80;99.90;;;;;;4999803;28;20268;-60
2021/08/12 01:38:53;;;;;;;10.02;9.02;;;14.70;99.90;;;;;;5001656;28;20201;-61
2021/08/12 01:41:21;;;;;;;9.18;8.25;;;14.70;99.90;;;;;;5001590;28;20225;-60
2021/08/12 01:43:49;;;;;;;20.27;10.00;;;14.80;99.90;;;;;;5002005;28;20205;-60
2021/08/12 01:46:18;;;;;;;13.98;9.43;;;14.70;99.90;;;;;;5006233;28;20229;-60
2021/08/12 01:48:46;;;;;;;11.90;9.25;;;14.70;99.90;;;;;;5002004;28;20265;-60
2021/08/12 01:51:13;;;;;;;10.98;9.90;;;14.60;99.90;;;;;;5001374;28;20205;-60
2021/08/12 01:53:40;;;;;;;8.68;7.78;;;14.60;99.90;;;;;;5001686;28;20237;-62
2021/08/12 01:56:08;;;;;;;14.85;10.20;;;14.50;99.90;;;;;;5001465;28;20260;-61
2021/08/12 01:58:37;;;;;;;12.57;9.52;;;14.50;99.90;;;;;;5001202;28;20205;-62
2021/08/12 02:01:04;;;;;;;11.00;9.88;;;14.50;99.90;;;;;;5000738;28;20327;-60
2021/08/12 02:03:33;;;;;;;10.57;9.13;;;14.50;99.90;;;;;;5001417;28;20542;-60
2021/08/12 02:06:01;;;;;;;12.73;8.70;;;14.50;99.90;;;;;;5001145;28;20344;-61
2021/08/12 02:08:30;;;;;;;8.50;7.70;;;14.50;99.90;;;;;;5001535;28;20201;-59
2021/08/12 02:10:57;;;;;;;10.27;9.20;;;14.50;99.90;;;;;;5001432;28;20198;-60
2021/08/12 02:13:25;;;;;;;10.10;9.05;;;14.50;99.90;;;;;;4999986;28;20248;-60
2021/08/12 02:15:52;;;;;;;10.57;9.55;;;14.50;99.90;;;;;;4996459;28;20245;-60
2021/08/12 02:18:19;;;;;;;11.05;9.75;;;14.40;99.90;;;;;;5001920;28;20436;-61
2021/08/12 02:20:52;;;;;;;8.43;7.53;;;14.40;99.90;;;;;;5004970;28;20220;-60
2021/08/12 02:23:26;;;;;;;13.10;9.38;;;14.40;99.90;;;;;;4999451;28;20209;-61
2021/08/12 02:26:17;;;;;;;10.23;8.23;;;14.30;99.90;;;;;;5000493;28;20202;-60
2021/08/12 02:28:45;;;;;;;9.98;9.07;;;14.30;99.90;;;;;;5000461;28;20221;-61
2021/08/12 02:31:16;;;;;;;12.23;8.90;;;14.30;99.90;;;;;;4995879;28;20202;-62
2021/08/12 02:33:45;;;;;;;12.20;9.10;;;14.30;99.90;;;;;;5000323;28;20214;-60
2021/08/12 02:36:13;;;;;;;10.65;9.25;;;14.30;99.90;;;;;;4997459;28;20555;-61
2021/08/12 02:38:43;;;;;;;11.95;9.70;;;14.30;99.90;;;;;;4992647;28;20481;-59
2021/08/12 02:41:14;;;;;;;14.35;12.25;;;14.30;99.90;;;;;;4988152;28;20202;-60
2021/08/12 02:43:43;;;;;;;14.60;10.60;;;14.20;99.90;;;;;;5010309;28;20427;-59
2021/08/12 02:46:11;;;;;;;12.45;9.82;;;14.20;99.90;;;;;;5003445;28;20469;-61
2021/08/12 02:48:40;;;;;;;13.02;11.13;;;14.20;99.90;;;;;;4999791;28;20202;-61
2021/08/12 02:51:08;;;;;;;10.48;9.07;;;14.20;99.90;;;;;;4999759;28;20238;-61
2021/08/12 02:53:35;;;;;;;11.57;10.15;;;14.20;99.90;;;;;;5012730;28;20222;-61
2021/08/12 02:56:06;;;;;;;12.43;11.05;;;14.20;99.90;;;;;;5006323;28;20197;-61
2021/08/12 02:58:36;;;;;;;14.65;11.52;;;14.20;99.90;;;;;;5006277;28;20523;-59
2021/08/12 03:01:04;;;;;;;10.77;9.63;;;14.20;99.90;;;;;;4999471;28;20197;-60
2021/08/12 03:03:33;;;;;;;10.80;9.68;;;14.20;99.90;;;;;;4999486;28;20203;-61
2021/08/12 03:06:01;;;;;;;12.13;9.65;;;14.10;99.90;;;;;;4998025;28;20237;-59
2021/08/12 03:08:31;;;;;;;13.23;10.00;;;14.20;99.90;;;;;;5010139;28;20201;-60
2021/08/12 03:10:59;;;;;;;11.50;10.05;;;14.20;99.90;;;;;;5005292;28;20202;-61
2021/08/12 03:13:26;;;;;;;11.13;9.30;;;14.20;99.90;;;;;;5000203;28;20249;-61
2021/08/12 03:15:53;;;;;;;12.57;10.02;;;14.20;99.90;;;;;;4997959;28;20221;-59
2021/08/12 03:18:20;;;;;;;10.18;9.05;;;14.20;99.90;;;;;;4999122;28;20373;-60
2021/08/12 03:20:47;;;;;;;10.95;9.57;;;14.20;99.90;;;;;;5000086;28;20248;-59
2021/08/12 03:23:14;;;;;;;13.13;9.60;;;14.00;99.90;;;;;;4985798;28;20205;-62
2021/08/12 03:25:41;;;;;;;13.27;10.20;;;14.00;99.90;;;;;;5011712;28;20224;-60
2021/08/12 03:28:08;;;;;;;10.27;9.27;;;14.00;99.90;;;;;;5000960;28;20578;-61
2021/08/12 03:30:36;;;;;;;11.43;10.32;;;14.10;99.90;;;;;;4994937;28;20509;-60
2021/08/12 03:33:04;;;;;;;16.83;12.10;;;14.10;99.90;;;;;;5003156;28;20247;-61
2021/08/12 03:35:31;;;;;;;13.25;11.88;;;13.90;99.90;;;;;;5000860;28;20202;-59
2021/08/12 03:37:58;;;;;;;13.35;11.45;;;13.90;99.90;;;;;;5004968;28;20255;-60
2021/08/12 03:40:25;;;;;;;12.48;11.07;;;13.90;99.90;;;;;;5005692;28;20401;-60
2021/08/12 03:42:52;;;;;;;11.23;10.02;;;13.90;99.90;;;;;;4980009;28;20261;-60
2021/08/12 03:45:20;;;;;;;14.50;11.65;;;13.90;99.90;;;;;;4982560;28;20198;-61
2021/08/12 03:47:47;;;;;;;14.10;11.07;;;14.00;99.90;;;;;;4980166;28;20446;-61
2021/08/12 03:50:16;;;;;;;20.15;11.63;;;14.10;99.90;;;;;;4982531;28;20260;-60
2021/08/12 03:52:44;;;;;;;17.73;13.07;;;14.10;99.90;;;;;;4991651;28;20260;-61
2021/08/12 03:55:11;;;;;;;11.95;10.57;;;14.20;99.90;;;;;;4999901;28;20199;-61
2021/08/12 03:57:42;;;;;;;14.52;11.38;;;14.20;99.90;;;;;;4986825;28;20428;-60
2021/08/12 04:00:11;;;;;;;15.23;11.13;;;14.20;99.90;;;;;;4999808;28;20202;-61
2021/08/12 04:02:38;;;;;;;13.35;10.48;;;14.20;99.90;;;;;;5000031;28;20221;-61
2021/08/12 04:05:06;;;;;;;14.55;10.07;;;14.20;99.90;;;;;;4999712;28;20229;-61
2021/08/12 04:07:33;;;;;;;10.95;9.82;;;14.40;99.90;;;;;;4999916;28;20268;-61
2021/08/12 04:10:00;;;;;;;10.65;9.70;;;14.40;99.90;;;;;;4996735;28;20201;-62
2021/08/12 04:12:27;;;;;;;9.57;8.60;;;14.50;99.90;;;;;;4996645;28;20236;-59
2021/08/12 04:14:54;;;;;;;9.88;8.90;;;14.60;99.90;;;;;;4998629;28;20442;-61
2021/08/12 04:17:21;;;;;;;10.73;9.68;;;14.70;99.90;;;;;;4997927;28;20225;-60
2021/08/12 04:19:48;;;;;;;9.80;8.80;;;14.70;99.90;;;;;;4998946;28;20201;-60
2021/08/12 04:22:16;;;;;;;10.27;9.25;;;14.80;99.90;;;;;;4998297;28;20205;-61
2021/08/12 04:24:43;;;;;;;9.82;8.82;;;15.00;99.90;;;;;;4999316;28;20201;-60
2021/08/12 04:27:10;;;;;;;10.90;9.60;;;15.10;99.90;;;;;;4997958;28;20526;-60
2021/08/12 04:29:37;;;;;;;12.80;10.43;;;15.30;99.90;;;;;;4998667;28;20201;-61
2021/08/12 04:32:04;;;;;;;12.23;9.38;;;15.40;99.90;;;;;;4998758;28;20201;-60
2021/08/12 04:34:31;;;;;;;11.98;9.57;;;15.30;99.90;;;;;;4997464;28;20496;-60
2021/08/12 04:36:59;;;;;;;10.05;8.32;;;15.40;99.90;;;;;;4999138;28;20281;-60
2021/08/12 04:39:26;;;;;;;10.30;9.18;;;15.70;99.90;;;;;;4998401;28;20520;-61
2021/08/12 04:41:53;;;;;;;9.68;8.75;;;15.80;99.90;;;;;;4998848;28;20206;-60
2021/08/12 04:44:20;;;;;;;12.05;9.02;;;15.90;99.90;;;;;;4988333;28;20259;-61
2021/08/12 04:46:47;;;;;;;17.88;8.18;;;16.00;99.90;;;;;;4981998;28;20228;-60
2021/08/12 04:49:14;;;;;;;12.47;8.27;;;16.10;99.90;;;;;;4980045;28;20211;-60
2021/08/12 04:51:44;;;;;;;15.23;8.65;;;16.10;99.90;;;;;;4980197;28;20438;-61
2021/08/12 04:54:11;;;;;;;11.53;8.80;;;16.10;99.90;;;;;;4979208;28;20474;-60
2021/08/12 04:56:38;;;;;;;12.00;7.83;;;16.00;99.90;;;;;;4980303;28;20700;-60
2021/08/12 04:59:05;;;;;;;13.70;7.90;;;16.00;99.90;;;;;;4980820;28;20439;-60
2021/08/12 05:01:32;;;;;;;9.40;6.97;;;16.00;99.90;;;;;;4978464;28;20454;-60
2021/08/12 05:03:59;;;;;;;11.70;8.25;;;16.20;99.90;;;;;;4979119;28;20803;-61
2021/08/12 05:06:26;;;;;;;10.10;8.00;;;16.30;99.90;;;;;;4980678;28;20251;-62
2021/08/12 05:08:54;;;;;;;8.90;7.90;;;16.50;99.90;;;;;;4982298;28;20440;-61
2021/08/12 05:11:21;;;;;;;15.90;7.90;;;16.60;99.90;;;;;;4985146;28;20513;-60
2021/08/12 05:13:47;;;;;;;8.90;8.00;;;16.80;99.90;;;;;;4988181;28;20464;-61
2021/08/12 05:16:16;;;;;;;11.90;7.40;;;16.80;99.90;;;;;;4994894;28;20450;-61
2021/08/12 05:18:44;;;;;;;9.00;8.10;;;16.90;99.90;;;;;;4983665;28;20432;-62
2021/08/12 05:21:11;;;;;;;8.50;7.60;;;17.00;99.90;;;;;;4986675;28;20422;-61
2021/08/12 05:23:39;;;;;;;9.70;7.13;;;17.30;99.90;;;;;;4985777;28;20439;-60
2021/08/12 05:26:06;;;;;;;7.03;5.77;;;17.50;99.90;;;;;;4993623;28;20438;-61
2021/08/12 05:28:33;;;;;;;12.27;8.37;;;17.70;99.90;;;;;;4984117;28;20494;-62
2021/08/12 05:31:03;;;;;;;11.40;7.30;;;17.80;99.90;;;;;;4984576;28;20448;-60
2021/08/12 05:33:31;;;;;;;9.40;7.50;;;17.90;99.90;;;;;;4985848;28;20451;-62
2021/08/12 05:35:58;;;;;;;8.67;6.13;;;18.00;99.90;;;;;;4989527;28;20501;-60
2021/08/12 05:38:25;;;;;;;10.07;5.53;;;18.30;99.90;;;;;;4985529;28;20443;-60
2021/08/12 05:40:52;;;;;;;9.80;6.00;;;18.40;99.90;;;;;;4985049;28;20446;-61
2021/08/12 05:43:19;;;;;;;7.67;5.90;;;18.60;99.90;;;;;;4983164;28;20450;-61
2021/08/12 05:45:46;;;;;;;8.70;7.10;;;18.70;99.90;;;;;;4986838;28;20467;-61
2021/08/12 05:48:13;;;;;;;8.00;6.40;;;18.80;99.90;;;;;;4997848;28;20511;-62
2021/08/12 05:50:44;;;;;;;6.83;6.00;;;19.00;99.90;;;;;;4982526;28;20452;-62
2021/08/12 05:53:12;;;;;;;8.47;6.20;;;18.90;99.90;;;;;;4981587;28;20406;-61
2021/08/12 05:55:40;;;;;;;8.97;7.23;;;19.30;99.90;;;;;;4983966;28;20414;-61
2021/08/12 05:58:07;;;;;;;7.57;6.40;;;19.30;99.90;;;;;;4983558;28;20637;-61
2021/08/12 06:00:34;;;;;;;6.03;5.40;;;19.20;99.90;;;;;;4982098;28;20670;-61
2021/08/12 06:03:08;;;;;;;7.87;7.00;;;19.30;99.90;;;;;;4983673;28;20833;-61
2021/08/12 06:05:40;;;;;;;7.73;6.97;;;19.60;99.90;;;;;;4985867;28;20525;-60
2021/08/12 06:08:10;;;;;;;7.10;6.40;;;19.70;99.90;;;;;;4981386;28;20477;-61
2021/08/12 06:10:37;;;;;;;8.13;7.20;;;20.20;99.90;;;;;;4984495;28;20515;-60
2021/08/12 06:13:04;;;;;;;7.83;7.20;;;20.50;99.90;;;;;;4983997;28;20776;-63
2021/08/12 06:15:33;;;;;;;10.17;7.20;;;20.60;99.90;;;;;;4993180;28;20432;-62
2021/08/12 06:18:09;;;;;;;7.57;6.57;;;20.40;99.90;;;;;;4996021;28;20814;-62
2021/08/12 06:20:38;;;;;;;8.47;7.60;;;20.70;99.90;;;;;;4993553;28;20429;-61
2021/08/12 06:23:06;;;;;;;7.10;6.50;;;21.10;99.90;;;;;;4999367;28;20757;-60
2021/08/12 06:25:34;;;;;;;8.03;7.27;;;21.50;99.90;;;;;;4999512;28;20436;-62
2021/08/12 06:28:03;;;;;;;7.07;6.53;;;21.80;99.90;;;;;;4998361;28;20531;-62
2021/08/12 06:30:32;;;;;;;7.17;6.53;;;22.40;99.90;;;;;;4996028;28;20662;-59
2021/08/12 06:33:00;;;;;;;6.73;6.23;;;24.10;99.90;;;;;;4995207;28;20436;-62
2021/08/12 06:35:31;;;;;;;7.77;7.17;;;25.80;99.90;;;;;;4996555;28;20507;-62
2021/08/12 06:37:59;;;;;;;8.00;7.40;;;26.70;99.20;;;;;;4995155;28;20568;-61
2021/08/12 06:40:27;;;;;;;9.17;8.43;;;28.00;97.00;;;;;;4994314;28;20680;-61
2021/08/12 06:42:55;;;;;;;8.87;8.00;;;29.00;93.20;;;;;;4998423;28;20439;-61
2021/08/12 06:45:24;;;;;;;9.23;8.63;;;29.50;92.10;;;;;;4998360;28;20427;-61
2021/08/12 06:47:53;;;;;;;9.97;8.93;;;30.20;90.70;;;;;;4997066;28;20562;-61
2021/08/12 06:50:22;;;;;;;11.83;10.93;;;31.30;86.40;;;;;;4996268;28;20808;-61
2021/08/12 06:52:51;;;;;;;10.40;9.80;;;30.90;84.40;;;;;;4998540;28;20474;-60
2021/08/12 06:55:19;;;;;;;11.23;10.43;;;32.30;80.40;;;;;;4995245;28;20914;-60
2021/08/12 06:57:46;;;;;;;9.63;9.13;;;32.70;77.30;;;;;;4994147;28;20974;-60
2021/08/12 07:00:14;;;;;;;10.97;10.17;;;33.00;74.20;;;;;;4996306;28;20766;-61
2021/08/12 07:02:41;;;;;;;10.90;10.10;;;34.10;67.50;;;;;;4993863;28;20444;-62
2021/08/12 07:05:09;;;;;;;10.00;9.30;;;35.60;64.20;;;;;;4998944;28;20441;-61
2021/08/12 07:07:36;;;;;;;11.97;11.37;;;36.20;61.00;;;;;;5013527;28;20467;-61
2021/08/12 07:10:05;;;;;;;9.90;9.20;;;37.40;58.10;;;;;;4989749;28;20482;-61
2021/08/12 07:12:32;;;;;;;10.70;10.17;;;37.60;56.20;;;;;;4996905;28;20498;-62
2021/08/12 07:14:59;;;;;;;11.50;10.80;;;38.60;53.30;;;;;;4990982;28;20475;-61
2021/08/12 07:17:28;;;;;;;10.30;9.70;;;37.80;53.60;;;;;;4984687;28;20501;-61
2021/08/12 07:19:55;;;;;;;12.03;11.17;;;38.70;51.30;;;;;;4984352;28;20436;-62
2021/08/12 07:22:22;;;;;;;11.57;10.93;;;39.10;50.30;;;;;;4986847;28;20440;-61
2021/08/12 07:24:50;;;;;;;12.43;11.67;;;38.90;50.60;;;;;;4982621;28;20483;-61
2021/08/12 07:27:17;;;;;;;12.90;11.97;;;40.20;48.20;;;;;;4983105;28;20546;-61
2021/08/12 07:29:44;;;;;;;11.57;10.97;;;40.30;46.90;;;;;;4995477;28;20436;-62
2021/08/12 07:32:11;;;;;;;11.23;10.83;;;41.10;45.70;;;;;;5000354;28;20489;-61
2021/08/12 07:34:38;;;;;;;10.70;10.20;;;42.30;44.40;;;;;;5001586;28;20483;-60
2021/08/12 07:37:05;;;;;;;10.50;10.00;;;42.20;43.60;;;;;;4990640;28;20440;-62
2021/08/12 07:39:32;;;;;;;12.00;11.40;;;41.90;43.60;;;;;;4989220;28;20435;-61
2021/08/12 07:41:59;;;;;;;11.40;10.90;;;40.20;43.90;;;;;;5000665;28;20435;-61
2021/08/12 07:44:26;;;;;;;11.50;10.90;;;40.90;44.20;;;;;;5000023;28;20435;-61
2021/08/12 07:46:53;;;;;;;12.83;11.83;;;41.00;43.50;;;;;;4998244;28;20435;-61
2021/08/12 07:49:20;;;;;;;10.73;10.23;;;42.00;42.00;;;;;;4997866;28;20719;-61
2021/08/12 07:51:47;;;;;;;10.63;10.23;;;41.50;41.80;;;;;;4998973;28;20439;-61
2021/08/12 07:54:15;;;;;;;11.93;11.43;;;40.50;42.70;;;;;;4997626;28;20490;-61
2021/08/12 07:56:42;;;;;;;12.20;11.70;;;41.70;42.00;;;;;;4987414;28;20491;-61
2021/08/12 07:59:08;;;;;;;11.07;10.57;;;42.20;40.10;;;;;;5000540;28;20501;-61
2021/08/12 08:01:37;;;;;;;10.83;10.37;;;42.70;39.70;;;;;;4996149;28;20812;-61
2021/08/12 08:04:04;;;;;;;11.50;11.00;;;42.90;39.40;;;;;;4990810;28;20448;-62
2021/08/12 08:06:31;;;;;;;11.03;10.63;;;42.60;39.60;;;;;;4998650;28;20538;-62
2021/08/12 08:08:58;;;;;;;10.80;10.30;;;41.60;39.80;;;;;;5004273;28;20671;-61
2021/08/12 08:11:25;;;;;;;10.93;10.43;;;41.30;39.30;;;;;;4993703;28;20431;-62
2021/08/12 08:13:52;;;;;;;10.73;10.33;;;40.90;40.90;;;;;;5000106;28;20498;-62
2021/08/12 08:16:21;;;;;;;10.93;10.43;;;39.80;40.90;;;;;;4997146;28;20439;-61
2021/08/12 08:18:49;;;;;;;11.47;11.00;;;40.70;39.80;;;;;;4996666;28;20443;-63
2021/08/12 08:21:16;;;;;;;11.87;11.33;;;40.80;39.70;;;;;;4997211;28;20542;-61
2021/08/12 08:23:43;;;;;;;11.97;11.17;;;40.80;40.00;;;;;;4996820;28;20661;-62
2021/08/12 08:26:10;;;;;;;10.77;10.27;;;41.70;38.70;;;;;;4997046;28;20840;-61
2021/08/12 08:28:37;;;;;;;11.30;10.90;;;42.00;39.00;;;;;;4997453;28;20537;-61
2021/08/12 08:31:04;;;;;;;11.13;10.70;;;40.70;40.60;;;;;;4997574;28;20444;-62
2021/08/12 08:33:35;;;;;;;10.97;10.43;;;42.00;38.70;;;;;;4997156;28;20444;-61
2021/08/12 08:36:04;;;;;;;12.23;11.63;;;43.20;37.50;;;;;;4988073;28;20470;-64
2021/08/12 08:38:31;;;;;;;11.33;10.63;;;42.50;37.10;;;;;;4988808;28;20447;-62
2021/08/12 08:40:59;;;;;;;10.00;9.60;;;42.10;37.70;;;;;;5005580;28;20436;-61
2021/08/12 08:43:29;;;;;;;10.33;9.93;;;41.70;37.90;;;;;;5000912;28;20630;-63
2021/08/12 08:45:59;;;;;;;10.07;9.67;;;41.80;37.50;;;;;;4995803;28;20442;-62
2021/08/12 08:48:30;;;;;;;11.33;10.83;;;41.00;37.00;;;;;;4996853;28;20793;-62
2021/08/12 08:50:59;;;;;;;10.70;10.30;;;40.80;38.50;;;;;;4997703;28;20440;-61
2021/08/12 08:53:26;;;;;;;11.13;10.63;;;40.30;38.70;;;;;;4995939;28;20439;-62
2021/08/12 08:55:54;;;;;;;10.60;10.10;;;40.40;38.40;;;;;;4997258;28;20435;-62
2021/08/12 08:58:21;;;;;;;11.00;10.50;;;41.10;37.70;;;;;;4993773;28;20789;-63
2021/08/12 09:00:48;;;;;;;10.03;9.63;;;41.40;37.30;;;;;;4995415;28;20443;-62
2021/08/12 09:03:15;;;;;;;10.50;10.00;;;41.80;37.10;;;;;;4986684;28;20440;-63
2021/08/12 09:05:43;;;;;;;10.20;9.80;;;41.90;37.20;;;;;;5000254;28;20467;-63
2021/08/12 09:08:10;;;;;;;10.87;10.33;;;42.30;36.00;;;;;;5004661;28;20475;-62
2021/08/12 09:10:38;;;;;;;9.67;9.17;;;41.40;36.90;;;;;;4999855;28;20788;-62
2021/08/12 09:13:08;;;;;;;11.40;10.90;;;40.30;37.50;;;;;;4997249;28;20439;-63
2021/08/12 09:15:43;;;;;;;12.27;11.03;;;39.50;38.70;;;;;;5001688;28;20435;-62
2021/08/12 09:18:22;;;;;;;11.50;11.00;;;40.00;38.70;;;;;;5000130;28;20550;-62
2021/08/12 09:20:52;;;;;;;12.47;11.77;;;39.60;39.90;;;;;;4997704;28;20486;-62
2021/08/12 09:23:27;;;;;;;11.87;11.17;;;40.40;38.60;;;;;;4996350;28;20755;-63
2021/08/12 09:25:55;;;;;;;11.33;10.80;;;41.80;37.30;;;;;;4995902;28;20489;-62
2021/08/12 09:28:24;;;;;;;11.43;10.83;;;42.00;37.30;;;;;;4996017;28;20537;-63
2021/08/12 09:30:57;;;;;;;11.17;10.10;;;42.00;36.50;;;;;;4996888;28;20496;-62
2021/08/12 09:33:45;;;;;;;10.00;9.60;;;41.00;37.90;;;;;;4996885;28;20431;-62
2021/08/12 09:36:23;;;;;;;10.60;10.07;;;37.30;41.70;;;;;;4983439;28;20455;-62
2021/08/12 09:39:11;;;;;;;9.60;9.20;;;34.70;44.70;;;;;;4979940;28;20789;-63
2021/08/12 09:41:40;;;;;;;10.70;10.10;;;32.60;47.20;;;;;;4988152;28;20478;-62
2021/08/12 09:44:34;;;;;;;10.97;10.17;;;30.80;50.50;;;;;;5001282;28;20768;-62
2021/08/12 09:47:06;;;;;;;10.40;9.80;;;29.90;53.50;;;;;;4986127;28;20459;-62
2021/08/12 09:49:43;;;;;;;9.87;9.37;;;29.20;53.40;;;;;;4979626;28;20477;-63
2021/08/12 09:52:17;;;;;;;9.17;8.67;;;28.50;54.40;;;;;;4980541;28;20463;-63
2021/08/12 09:54:44;;;;;;;9.10;8.60;;;28.20;55.30;;;;;;4995176;28;20441;-61
2021/08/12 09:57:19;;;;;;;9.27;8.80;;;28.00;56.30;;;;;;4986882;28;20502;-63
2021/08/12 09:59:53;;;;;;;9.43;8.87;;;28.00;55.90;;;;;;4987882;28;20440;-62
2021/08/12 10:02:20;;;;;;;10.17;9.27;;;28.00;56.80;;;;;;5001053;28;20511;-62
2021/08/12 10:05:03;;;;;;;8.40;8.00;;;28.20;56.90;;;;;;5002652;28;20471;-63
2021/08/12 10:07:50;;;;;;;9.03;8.63;;;28.30;56.20;;;;;;4990945;28;20428;-62
2021/08/12 10:10:27;;;;;;;8.90;8.40;;;28.30;55.60;;;;;;5000281;28;20441;-62
2021/08/12 10:12:59;;;;;;;9.00;8.40;;;28.00;55.70;;;;;;5000103;28;20439;-63
2021/08/12 10:15:31;;;;;;;8.27;7.87;;;27.80;55.90;;;;;;4998405;28;20446;-63
2021/08/12 10:18:01;;;;;;;8.17;7.77;;;27.80;56.60;;;;;;5000486;28;20414;-63
2021/08/12 10:20:31;;;;;;;7.90;7.60;;;27.90;56.50;;;;;;4998447;28;20470;-63
2021/08/12 10:23:00;;;;;;;8.20;7.80;;;28.20;56.80;;;;;;5000400;28;20431;-62
2021/08/12 10:25:28;;;;;;;8.93;8.43;;;28.00;57.40;;;;;;5000120;28;20414;-62
2021/08/12 10:27:58;;;;;;;7.73;7.30;;;27.90;57.70;;;;;;5000189;28;20462;-63
2021/08/12 10:30:27;;;;;;;8.33;7.93;;;27.80;58.20;;;;;;4999744;28;20439;-62
2021/08/12 10:33:02;;;;;;;7.93;7.53;;;27.60;58.20;;;;;;5031579;28;20439;-62
2021/08/12 10:35:32;;;;;;;8.73;8.23;;;27.50;58.60;;;;;;5000570;28;20651;-63
2021/08/12 10:38:00;;;;;;;8.70;8.30;;;27.40;58.60;;;;;;4999537;28;20850;-62
2021/08/12 10:40:30;;;;;;;8.47;8.07;;;27.30;57.90;;;;;;5000122;28;20516;-62
2021/08/12 10:42:58;;;;;;;7.70;7.30;;;27.10;57.80;;;;;;5000100;28;20489;-63
2021/08/12 10:45:27;;;;;;;8.23;7.83;;;27.00;57.50;;;;;;4999800;28;20499;-63
2021/08/12 10:47:57;;;;;;;9.17;8.27;;;26.70;58.30;;;;;;4990056;28;20442;-61
2021/08/12 10:50:34;;;;;;;8.20;7.77;;;26.90;59.60;;;;;;5010014;28;20447;-61
2021/08/12 10:53:09;;;;;;;8.87;8.30;;;27.40;59.50;;;;;;5013881;28;20430;-62
2021/08/12 10:55:48;;;;;;;7.90;7.20;;;28.10;57.70;;;;;;5008853;28;20505;-62
2021/08/12 10:58:18;;;;;;;8.97;8.37;;;28.50;55.70;;;;;;4980171;28;20432;-63
2021/08/12 11:00:50;;;;;;;8.43;7.97;;;29.00;56.40;;;;;;4981237;28;20442;-62
2021/08/12 11:03:46;;;;;;;8.20;7.80;;;29.10;55.90;;;;;;4979798;28;20503;-63
2021/08/12 11:06:14;;;;;;;8.47;8.07;;;29.10;54.70;;;;;;4982260;28;20503;-63
2021/08/12 11:11:25;;;;;;;7.53;7.17;;;27.90;57.00;;;;;;4983303;28;20439;-62
2021/08/12 11:13:54;;;;;;;7.50;7.20;;;28.20;57.70;;;;;;4987793;28;20422;-62
2021/08/12 11:16:27;;;;;;;8.23;7.60;;;28.20;56.70;;;;;;4981216;28;20444;-62
2021/08/12 11:18:59;;;;;;;7.73;7.37;;;27.80;57.30;;;;;;4984538;28;20478;-62
2021/08/12 11:21:42;;;;;;;7.93;7.20;;;26.90;58.60;;;;;;4980220;28;20608;-62
2021/08/12 11:24:12;;;;;;;8.40;7.80;;;27.00;59.40;;;;;;4984352;28;20651;-61
2021/08/12 11:26:45;;;;;;;8.83;8.10;;;27.10;59.70;;;;;;4983667;28;20414;-63
2021/08/12 11:29:34;;;;;;;7.23;6.83;;;27.00;59.30;;;;;;4986788;28;20517;-62
2021/08/12 11:32:14;;;;;;;8.20;7.77;;;27.00;60.20;;;;;;4982016;28;20769;-62
2021/08/12 11:34:50;;;;;;;7.83;7.33;;;27.10;59.60;;;;;;4983382;28;20459;-61
2021/08/12 11:37:18;;;;;;;8.63;8.13;;;27.10;59.10;;;;;;4982447;28;20843;-62
2021/08/12 11:40:09;;;;;;;7.97;7.47;;;27.10;58.30;;;;;;4984846;28;20464;-62
2021/08/12 11:42:38;;;;;;;7.63;7.23;;;26.90;59.00;;;;;;4983375;28;20467;-62
2021/08/12 11:45:11;;;;;;;8.00;7.50;;;26.60;59.90;;;;;;4985301;28;20409;-63
2021/08/12 11:47:39;;;;;;;7.50;6.90;;;26.50;59.80;;;;;;4977728;28;20819;-62
2021/08/12 11:50:10;;;;;;;7.43;7.07;;;26.60;61.10;;;;;;4980101;28;20451;-63
2021/08/12 11:52:47;;;;;;;7.67;6.97;;;26.80;60.00;;;;;;4980728;28;20443;-63
2021/08/12 11:55:18;;;;;;;8.40;7.80;;;26.90;59.50;;;;;;4984555;28;20445;-62
2021/08/12 11:57:56;;;;;;;9.00;8.10;;;27.00;58.80;;;;;;4982335;28;20445;-62
2021/08/12 12:00:31;;;;;;;7.70;7.30;;;26.80;58.40;;;;;;4982217;28;20475;-62
2021/08/12 12:03:01;;;;;;;7.23;6.90;;;26.80;59.00;;;;;;4982580;28;20481;-61
2021/08/12 12:05:29;;;;;;;7.17;6.77;;;26.80;57.60;;;;;;4997954;28;20505;-62
2021/08/12 12:08:07;;;;;;;7.80;7.40;;;26.60;58.10;;;;;;4982316;28;20403;-65
2021/08/12 12:10:45;;;;;;;8.03;7.30;;;26.80;58.40;;;;;;4980794;28;20522;-63
2021/08/12 12:13:20;;;;;;;7.90;7.20;;;26.90;57.90;;;;;;4977946;28;20851;-63
2021/08/12 12:15:49;;;;;;;7.60;7.20;;;27.20;58.30;;;;;;4987920;28;20807;-62
2021/08/12 12:18:44;;;;;;;8.07;7.57;;;27.30;56.80;;;;;;4984076;28;20460;-62
2021/08/12 12:21:18;;;;;;;7.87;7.40;;;27.60;57.90;;;;;;4985350;28;20475;-61
2021/08/12 12:23:47;;;;;;;8.00;7.40;;;27.80;57.70;;;;;;4982101;28;20469;-61
2021/08/12 12:26:32;;;;;;;6.60;6.30;;;28.20;57.30;;;;;;4981988;28;20443;-61
2021/08/12 12:29:10;;;;;;;7.90;7.40;;;28.30;55.70;;;;;;4981513;28;20594;-61
2021/08/12 12:31:37;;;;;;;8.07;7.60;;;28.00;56.10;;;;;;4980199;28;20439;-61
2021/08/12 12:34:04;;;;;;;7.40;7.10;;;28.00;56.00;;;;;;4984209;28;20451;-63
2021/08/12 12:36:32;;;;;;;8.40;8.00;;;27.60;56.40;;;;;;4983033;28;20446;-62
2021/08/12 12:39:00;;;;;;;8.57;7.90;;;27.40;57.80;;;;;;4984871;28;20410;-62
2021/08/12 12:41:27;;;;;;;8.23;7.73;;;27.30;58.00;;;;;;4982467;28;20444;-62
2021/08/12 12:44:11;;;;;;;7.97;7.53;;;27.50;58.40;;;;;;4979835;28;20562;-62
2021/08/12 12:46:38;;;;;;;7.97;7.30;;;27.60;57.90;;;;;;4980800;28;20494;-62
2021/08/12 12:49:24;;;;;;;7.70;7.30;;;27.80;56.50;;;;;;4981133;28;20981;-61
2021/08/12 12:51:52;;;;;;;7.53;7.23;;;27.80;56.70;;;;;;4981491;28;20747;-63
2021/08/12 12:54:32;;;;;;;8.20;7.80;;;28.00;57.20;;;;;;4981463;28;20437;-63